createdAt,value
2022-08-29T00:01:44.333Z,1.98
2022-08-29T00:04:33.211Z,1.98
2022-08-29T00:07:21.844Z,2.45
2022-08-29T00:10:10.195Z,2.22
2022-08-29T00:13:06.151Z,1.73
2022-08-29T00:15:55.330Z,2.10
2022-08-29T00:18:45.190Z,2.25
2022-08-29T00:21:33.280Z,2.30
2022-08-29T00:24:22.168Z,2.45
2022-08-29T00:27:11.794Z,2.00
2022-08-29T00:29:59.162Z,2.00
2022-08-29T00:32:55.242Z,2.22
2022-08-29T00:35:54.168Z,1.77
2022-08-29T00:38:45.429Z,2.25
2022-08-29T00:41:27.186Z,2.10
2022-08-29T00:44:15.331Z,2.00
2022-08-29T00:47:06.213Z,3.10
2022-08-29T00:49:50.675Z,2.35
2022-08-29T00:52:43.175Z,2.55
2022-08-29T00:55:28.308Z,2.33
2022-08-29T00:58:21.159Z,2.40
2022-08-29T01:01:03.317Z,2.40
2022-08-29T01:03:59.172Z,1.95
2022-08-29T01:06:49.287Z,2.17
2022-08-29T01:09:40.165Z,2.47
2022-08-29T01:12:29.476Z,2.53
2022-08-29T01:15:20.181Z,2.13
2022-08-29T01:18:10.418Z,2.25
2022-08-29T01:21:10.205Z,2.35
2022-08-29T01:24:05.396Z,2.75
2022-08-29T01:26:49.201Z,2.40
2022-08-29T01:29:37.316Z,2.42
2022-08-29T01:32:20.249Z,2.30
2022-08-29T01:35:16.180Z,2.85
2022-08-29T01:38:04.394Z,2.28
2022-08-29T01:40:46.649Z,2.50
2022-08-29T01:43:43.194Z,2.78
2022-08-29T01:46:30.067Z,2.63
2022-08-29T01:49:22.186Z,2.30
2022-08-29T01:52:05.318Z,2.75
2022-08-29T01:54:55.249Z,2.72
2022-08-29T01:57:45.375Z,2.70
2022-08-29T02:03:26.462Z,2.80
2022-08-29T02:06:08.226Z,2.42
2022-08-29T02:08:56.328Z,3.03
2022-08-29T02:11:38.295Z,3.20
2022-08-29T02:14:26.429Z,2.47
2022-08-29T02:17:09.244Z,2.95
2022-08-29T02:19:57.351Z,3.08
2022-08-29T02:22:39.290Z,3.03
2022-08-29T02:25:42.746Z,3.22
2022-08-29T02:28:32.223Z,3.05
2022-08-29T02:31:14.520Z,3.30
2022-08-29T02:34:11.567Z,3.30
2022-08-29T02:37:00.243Z,3.25
2022-08-29T02:39:49.227Z,2.85
2022-08-29T02:42:38.363Z,3.80
2022-08-29T02:45:27.214Z,3.60
2022-08-29T02:48:16.492Z,3.60
2022-08-29T02:51:09.358Z,3.80
2022-08-29T02:53:57.398Z,3.08
2022-08-29T02:56:39.241Z,3.72
2022-08-29T02:59:27.808Z,3.88
2022-08-29T03:02:09.326Z,3.55
2022-08-29T03:04:59.962Z,4.03
2022-08-29T03:07:47.938Z,3.75
2022-08-29T03:10:38.349Z,3.40
2022-08-29T03:13:20.313Z,3.83
2022-08-29T03:16:09.434Z,3.53
2022-08-29T03:18:59.255Z,4.07
2022-08-29T03:21:47.313Z,3.65
2022-08-29T03:24:30.479Z,3.65
2022-08-29T03:27:19.242Z,3.60
2022-08-29T03:30:00.815Z,3.50
2022-08-29T03:32:49.217Z,4.20
2022-08-29T03:35:44.229Z,4.03
2022-08-29T03:38:39.290Z,3.92
2022-08-29T03:41:30.222Z,4.13
2022-08-29T03:44:12.644Z,4.05
2022-08-29T03:47:01.381Z,4.20
2022-08-29T03:49:43.360Z,4.05
2022-08-29T03:52:38.159Z,4.00
2022-08-29T03:55:22.462Z,3.90
2022-08-29T03:58:12.235Z,3.90
2022-08-29T04:00:54.410Z,4.32
2022-08-29T04:03:49.315Z,3.60
2022-08-29T04:06:38.357Z,3.90
2022-08-29T04:09:26.246Z,3.50
2022-08-29T04:12:15.458Z,3.80
2022-08-29T04:15:05.321Z,3.72
2022-08-29T04:17:54.422Z,4.38
2022-08-29T04:20:47.227Z,5.03
2022-08-29T04:23:35.470Z,4.07
2022-08-29T04:26:38.087Z,4.63
2022-08-29T04:29:26.992Z,4.45
2022-08-29T04:32:16.255Z,4.95
2022-08-29T04:35:12.257Z,4.40
2022-08-29T04:38:00.312Z,4.03
2022-08-29T04:40:44.696Z,4.00
2022-08-29T04:43:39.335Z,4.85
2022-08-29T04:46:27.505Z,4.00
2022-08-29T04:49:17.293Z,4.40
2022-08-29T04:52:06.326Z,4.75
2022-08-29T04:54:47.464Z,4.03
2022-08-29T04:57:35.347Z,4.03
2022-08-29T05:00:21.379Z,3.50
2022-08-29T05:03:10.339Z,4.18
2022-08-29T05:05:53.379Z,4.50
2022-08-29T05:08:58.898Z,3.90
2022-08-29T05:11:47.498Z,3.75
2022-08-29T05:14:36.278Z,4.03
2022-08-29T05:17:24.455Z,4.05
2022-08-29T05:20:13.342Z,4.13
2022-08-29T05:23:03.466Z,4.10
2022-08-29T05:25:52.268Z,3.28
2022-08-29T05:28:43.992Z,3.65
2022-08-29T05:31:25.505Z,3.60
2022-08-29T05:34:34.635Z,3.80
2022-08-29T05:37:26.255Z,5.00
2022-08-29T05:40:09.656Z,4.28
2022-08-29T05:42:57.288Z,6.05
2022-08-29T05:45:38.522Z,3.92
2022-08-29T05:48:26.273Z,3.50
2022-08-29T05:51:08.507Z,3.28
2022-08-29T05:54:03.339Z,6.00
2022-08-29T05:56:53.450Z,4.10
2022-08-29T05:59:42.287Z,3.90
2022-08-29T06:02:30.680Z,3.55
2022-08-29T06:05:19.354Z,3.50
2022-08-29T06:08:07.607Z,3.33
2022-08-29T06:10:57.320Z,3.92
2022-08-29T06:13:47.529Z,3.35
2022-08-29T06:16:30.324Z,4.15
2022-08-29T06:19:19.433Z,3.50
2022-08-29T06:22:03.301Z,4.78
2022-08-29T06:25:00.496Z,3.50
2022-08-29T06:27:46.389Z,4.10
2022-08-29T06:30:39.518Z,3.55
2022-08-29T06:33:21.320Z,3.92
2022-08-29T06:36:17.383Z,4.57
2022-08-29T06:39:14.328Z,3.25
2022-08-29T06:42:02.460Z,4.07
2022-08-29T06:44:51.405Z,4.80
2022-08-29T06:47:41.458Z,3.80
2022-08-29T06:50:30.315Z,4.90
2022-08-29T06:53:27.565Z,3.83
2022-08-29T06:56:21.319Z,3.88
2022-08-29T06:59:09.528Z,4.65
2022-08-29T07:01:52.365Z,3.97
2022-08-29T07:04:42.560Z,3.85
2022-08-29T07:07:24.298Z,4.07
2022-08-29T07:10:18.671Z,4.30
2022-08-29T07:13:03.317Z,4.20
2022-08-29T07:15:52.019Z,4.15
2022-08-29T07:18:40.315Z,4.32
2022-08-29T07:21:32.448Z,4.45
2022-08-29T07:24:27.411Z,4.45
2022-08-29T07:27:15.525Z,4.13
2022-08-29T07:30:04.347Z,4.18
2022-08-29T07:32:52.640Z,3.45
2022-08-29T07:35:41.410Z,4.88
2022-08-29T07:38:32.729Z,3.08
2022-08-29T07:41:20.325Z,4.25
2022-08-29T07:44:08.463Z,3.33
2022-08-29T07:46:51.308Z,5.53
2022-08-29T07:49:46.431Z,3.35
2022-08-29T07:52:34.835Z,5.65
2022-08-29T07:55:24.320Z,3.58
2022-08-29T07:58:12.484Z,3.08
2022-08-29T08:01:00.447Z,3.10
2022-08-29T08:03:48.501Z,2.95
2022-08-29T08:06:34.404Z,3.08
2022-08-29T08:09:23.528Z,2.72
2022-08-29T08:12:08.308Z,2.30
2022-08-29T08:14:56.907Z,2.47
2022-08-29T08:17:43.335Z,2.90
2022-08-29T08:20:35.222Z,2.92
2022-08-29T08:23:17.528Z,2.28
2022-08-29T08:26:05.620Z,2.75
2022-08-29T08:28:56.416Z,2.70
2022-08-29T08:31:49.982Z,3.17
2022-08-29T08:34:41.413Z,3.30
2022-08-29T08:37:29.530Z,2.83
2022-08-29T08:40:18.380Z,2.40
2022-08-29T08:43:09.537Z,2.40
2022-08-29T08:45:59.365Z,3.35
2022-08-29T08:48:48.509Z,3.08
2022-08-29T08:51:35.351Z,2.47
2022-08-29T08:54:29.613Z,3.00
2022-08-29T08:57:15.437Z,2.80
2022-08-29T09:00:06.724Z,3.05
2022-08-29T09:03:03.355Z,3.17
2022-08-29T09:06:08.880Z,3.03
2022-08-29T09:09:05.380Z,3.13
2022-08-29T09:12:10.148Z,3.00
2022-08-29T09:15:13.366Z,2.80
2022-08-29T09:18:06.579Z,3.10
2022-08-29T09:20:55.402Z,3.03
2022-08-29T09:23:49.625Z,3.40
2022-08-29T09:26:33.410Z,2.60
2022-08-29T09:29:21.984Z,3.13
2022-08-29T09:32:20.187Z,3.30
2022-08-29T09:35:35.702Z,2.85
2022-08-29T09:38:30.380Z,2.60
2022-08-29T09:41:15.171Z,2.80
2022-08-29T09:44:09.382Z,2.95
2022-08-29T09:47:13.554Z,2.85
2022-08-29T09:50:19.528Z,2.83
2022-08-29T09:53:24.431Z,2.53
2022-08-29T09:56:19.476Z,2.83
2022-08-29T09:59:17.557Z,2.65
2022-08-29T10:02:31.552Z,3.00
2022-08-29T10:05:36.585Z,2.90
2022-08-29T10:08:44.404Z,2.72
2022-08-29T10:11:37.536Z,3.20
2022-08-29T10:14:31.470Z,3.13
2022-08-29T10:17:45.193Z,2.85
2022-08-29T10:20:35.452Z,2.95
2022-08-29T10:23:29.660Z,2.88
2022-08-29T10:29:20.560Z,3.10
2022-08-29T10:32:16.476Z,2.80
2022-08-29T10:35:22.392Z,2.50
2022-08-29T10:38:23.362Z,2.83
2022-08-29T10:41:12.613Z,3.25
2022-08-29T10:47:27.571Z,2.63
2022-08-29T10:50:46.083Z,2.70
2022-08-29T10:53:40.564Z,2.60
2022-08-29T10:59:23.530Z,3.08
2022-08-29T11:02:12.469Z,3.33
2022-08-29T11:05:03.726Z,2.55
2022-08-29T11:07:51.418Z,2.40
2022-08-29T11:10:43.563Z,3.40
2022-08-29T11:13:29.443Z,3.10
2022-08-29T11:16:20.628Z,3.00
2022-08-29T11:19:23.433Z,2.67
2022-08-29T11:22:18.627Z,2.80
2022-08-29T11:25:15.435Z,3.70
2022-08-29T11:28:10.754Z,3.10
2022-08-29T11:31:03.522Z,3.00
2022-08-29T11:33:59.840Z,2.90
2022-08-29T11:37:01.412Z,3.30
2022-08-29T11:40:04.250Z,3.03
2022-08-29T11:42:55.414Z,3.00
2022-08-29T11:45:40.701Z,2.85
2022-08-29T11:48:48.408Z,3.20
2022-08-29T11:51:44.634Z,3.00
2022-08-29T11:55:26.500Z,2.78
2022-08-29T11:58:56.436Z,2.70
2022-08-29T12:02:06.694Z,2.70
2022-08-29T12:05:11.520Z,3.15
2022-08-29T12:08:26.189Z,3.40
2022-08-29T12:14:09.721Z,2.88
2022-08-29T12:17:00.483Z,2.83
2022-08-29T12:20:22.272Z,4.07
2022-08-29T12:23:13.501Z,3.72
2022-08-29T12:26:21.080Z,2.45
2022-08-29T12:29:13.587Z,3.08
2022-08-29T12:32:29.842Z,3.25
2022-08-29T12:35:42.481Z,2.92
2022-08-29T12:38:44.745Z,3.10
2022-08-29T12:41:45.433Z,2.90
2022-08-29T12:44:40.611Z,2.97
2022-08-29T12:47:32.506Z,2.92
2022-08-29T12:50:25.640Z,2.72
2022-08-29T12:53:09.574Z,2.97
2022-08-29T12:56:02.660Z,2.83
2022-08-29T12:58:55.441Z,3.30
2022-08-29T13:01:46.664Z,2.85
2022-08-29T13:04:45.524Z,2.80
2022-08-29T13:07:35.673Z,3.13
2022-08-29T13:10:32.444Z,3.20
2022-08-29T13:13:25.718Z,3.60
2022-08-29T13:16:17.547Z,2.80
2022-08-29T13:19:11.211Z,3.00
2022-08-29T13:21:53.464Z,2.92
2022-08-29T13:24:41.642Z,2.50
2022-08-29T13:27:29.488Z,3.20
2022-08-29T13:30:36.468Z,3.00
2022-08-29T13:33:35.050Z,3.20
2022-08-29T13:36:52.455Z,2.70
2022-08-29T13:39:57.554Z,2.78
2022-08-29T13:42:52.683Z,3.00
2022-08-29T13:45:42.453Z,3.00
2022-08-29T13:48:34.654Z,2.65
2022-08-29T13:51:16.468Z,2.55
2022-08-29T13:54:34.073Z,2.90
2022-08-29T13:57:36.547Z,2.97
2022-08-29T14:00:34.813Z,2.67
2022-08-29T14:03:19.610Z,2.85
2022-08-29T14:06:07.680Z,2.80
2022-08-29T14:08:55.495Z,3.33
2022-08-29T14:11:58.559Z,2.95
2022-08-29T14:14:54.482Z,3.33
2022-08-29T14:17:36.341Z,3.30
2022-08-29T14:20:27.507Z,2.50
2022-08-29T14:23:09.390Z,3.60
2022-08-29T14:25:58.474Z,3.53
2022-08-29T14:28:52.829Z,3.22
2022-08-29T14:31:42.789Z,3.20
2022-08-29T14:34:40.486Z,2.97
2022-08-29T14:37:41.493Z,3.17
2022-08-29T14:40:26.127Z,3.30
2022-08-29T14:43:17.503Z,3.20
2022-08-29T14:45:59.752Z,3.40
2022-08-29T14:48:54.496Z,2.95
2022-08-29T14:51:44.207Z,3.03
2022-08-29T14:54:33.548Z,3.70
2022-08-29T14:57:28.564Z,3.00
2022-08-29T15:00:23.792Z,3.08
2022-08-29T15:03:06.566Z,2.42
2022-08-29T15:05:54.743Z,3.17
2022-08-29T15:08:43.549Z,3.10
2022-08-29T15:11:33.618Z,3.03
2022-08-29T15:14:22.517Z,3.17
2022-08-29T15:17:11.714Z,3.13
2022-08-29T15:23:08.699Z,2.90
2022-08-29T15:25:57.510Z,3.20
2022-08-29T15:28:47.805Z,3.47
2022-08-29T15:31:29.564Z,2.97
2022-08-29T15:34:18.774Z,3.22
2022-08-29T15:37:14.492Z,2.70
2022-08-29T15:40:02.760Z,3.00
2022-08-29T15:42:45.538Z,3.22
2022-08-29T15:45:35.683Z,2.95
2022-08-29T15:48:18.531Z,3.00
2022-08-29T15:51:06.708Z,3.10
2022-08-29T15:53:55.518Z,3.60
2022-08-29T15:56:43.648Z,2.97
2022-08-29T15:59:56.745Z,3.17
2022-08-29T16:02:36.705Z,3.30
2022-08-29T16:05:25.521Z,2.50
2022-08-29T16:08:17.757Z,3.28
2022-08-29T16:11:07.570Z,3.00
2022-08-29T16:14:08.391Z,4.53
2022-08-29T16:16:58.566Z,3.10
2022-08-29T16:19:48.886Z,3.47
2022-08-29T16:22:30.547Z,2.88
2022-08-29T16:25:19.829Z,3.17
2022-08-29T16:28:01.519Z,3.20
2022-08-29T16:30:51.888Z,3.38
2022-08-29T16:33:40.590Z,3.20
2022-08-29T16:36:37.675Z,3.15
2022-08-29T16:39:33.552Z,3.22
2022-08-29T16:42:21.815Z,2.97
2022-08-29T16:45:12.564Z,2.95
2022-08-29T16:48:00.785Z,3.20
2022-08-29T16:50:48.646Z,3.35
2022-08-29T16:53:39.008Z,4.00
2022-08-29T16:56:23.605Z,2.60
2022-08-29T16:59:12.516Z,3.50
2022-08-29T17:01:56.712Z,3.47
2022-08-29T17:04:46.896Z,3.22
2022-08-29T17:07:28.556Z,2.90
2022-08-29T17:10:17.680Z,3.55
2022-08-29T17:12:58.593Z,3.05
2022-08-29T17:15:45.756Z,2.85
2022-08-29T17:18:27.566Z,3.25
2022-08-29T17:21:13.555Z,3.20
2022-08-29T17:24:10.672Z,3.22
2022-08-29T17:26:53.765Z,3.70
2022-08-29T17:29:49.937Z,3.80
2022-08-29T17:32:44.986Z,3.50
2022-08-29T17:35:33.688Z,3.20
2022-08-29T17:38:21.839Z,3.28
2022-08-29T17:41:05.229Z,2.80
2022-08-29T17:44:05.711Z,3.33
2022-08-29T17:46:47.645Z,3.20
2022-08-29T17:49:35.728Z,3.17
2022-08-29T17:52:17.640Z,3.38
2022-08-29T17:55:07.578Z,3.50
2022-08-29T17:57:49.562Z,3.50
2022-08-29T18:00:39.922Z,3.38
2022-08-29T18:03:21.648Z,3.58
2022-08-29T18:06:10.269Z,3.35
2022-08-29T18:08:59.633Z,3.20
2022-08-29T18:11:50.795Z,3.08
2022-08-29T18:14:41.599Z,3.08
2022-08-29T18:17:31.671Z,4.03
2022-08-29T18:20:19.440Z,3.05
2022-08-29T18:23:07.586Z,3.38
2022-08-29T18:25:49.727Z,2.97
2022-08-29T18:28:45.766Z,3.17
2022-08-29T18:31:27.598Z,3.00
2022-08-29T18:34:17.681Z,3.20
2022-08-29T18:37:18.670Z,3.08
2022-08-29T18:40:24.680Z,3.60
2022-08-29T18:46:00.686Z,2.85
2022-08-29T18:48:54.026Z,3.28
2022-08-29T18:51:39.604Z,2.95
2022-08-29T18:54:27.839Z,2.78
2022-08-29T18:57:09.612Z,3.75
2022-08-29T18:59:57.725Z,3.30
2022-08-29T19:02:39.693Z,3.22
2022-08-29T19:05:28.810Z,3.10
2022-08-29T19:08:12.677Z,3.13
2022-08-29T19:11:00.844Z,3.10
2022-08-29T19:13:52.472Z,2.80
2022-08-29T19:16:36.822Z,3.28
2022-08-29T19:19:24.641Z,3.53
2022-08-29T19:22:11.763Z,3.55
2022-08-29T19:25:02.593Z,3.00
2022-08-29T19:27:53.761Z,3.67
2022-08-29T19:30:42.688Z,3.88
2022-08-29T19:33:32.038Z,3.35
2022-08-29T19:36:27.677Z,3.50
2022-08-29T19:39:22.692Z,3.25
2022-08-29T19:42:16.106Z,3.00
2022-08-29T19:45:05.625Z,3.30
2022-08-29T19:47:55.817Z,3.50
2022-08-29T19:50:47.664Z,2.80
2022-08-29T19:53:35.954Z,3.45
2022-08-29T19:56:18.729Z,3.45
2022-08-29T19:59:11.733Z,3.75
2022-08-29T20:01:54.730Z,3.35
2022-08-29T20:04:42.820Z,3.45
2022-08-29T20:07:40.634Z,3.30
2022-08-29T20:10:42.952Z,3.42
2022-08-29T20:13:34.825Z,3.25
2022-08-29T20:16:30.652Z,3.20
2022-08-29T20:19:28.690Z,2.95
2022-08-29T20:22:23.854Z,3.78
2022-08-29T20:25:33.722Z,3.17
2022-08-29T20:28:24.633Z,3.72
2022-08-29T20:31:41.933Z,3.67
2022-08-29T20:34:53.106Z,3.83
2022-08-29T20:37:51.687Z,3.13
2022-08-29T20:40:32.911Z,2.80
2022-08-29T20:43:21.701Z,3.10
2022-08-29T20:46:43.183Z,3.30
2022-08-29T20:49:40.633Z,3.08
2022-08-29T20:56:00.764Z,3.28
2022-08-29T20:58:51.855Z,3.05
2022-08-29T21:01:33.702Z,3.10
2022-08-29T21:05:03.423Z,3.22
2022-08-29T21:07:47.155Z,3.47
2022-08-29T21:10:41.684Z,3.20
2022-08-29T21:13:29.660Z,3.40
2022-08-29T21:16:23.891Z,2.95
2022-08-29T21:19:15.687Z,2.90
2022-08-29T21:22:13.839Z,3.05
2022-08-29T21:25:11.689Z,3.17
2022-08-29T21:28:15.268Z,3.60
2022-08-29T21:31:24.895Z,2.88
2022-08-29T21:34:22.817Z,3.20
2022-08-29T21:37:31.739Z,3.30
2022-08-29T21:40:25.852Z,3.47
2022-08-29T21:43:13.624Z,3.38
2022-08-29T21:46:14.186Z,3.70
2022-08-29T21:49:02.875Z,3.22
2022-08-29T21:51:51.787Z,3.22
2022-08-29T21:54:44.670Z,3.58
2022-08-29T21:57:47.427Z,3.28
2022-08-29T22:00:38.754Z,2.97
2022-08-29T22:03:27.068Z,4.07
2022-08-29T22:06:08.704Z,3.45
2022-08-29T22:08:59.543Z,3.65
2022-08-29T22:11:43.685Z,3.38
2022-08-29T22:14:49.958Z,3.65
2022-08-29T22:17:31.673Z,3.65
2022-08-29T22:20:20.362Z,3.67
2022-08-29T22:23:01.690Z,4.07
2022-08-29T22:25:49.883Z,41.83
2022-08-29T22:28:39.701Z,29.63
2022-08-29T22:31:27.965Z,21.35
2022-08-29T22:34:16.703Z,14.13
2022-08-29T22:37:11.711Z,11.30
2022-08-29T22:40:06.724Z,14.20
2022-08-29T22:42:54.819Z,15.60
2022-08-29T22:45:44.683Z,13.88
2022-08-29T22:48:32.882Z,8.27
2022-08-29T22:51:19.717Z,6.03
2022-08-29T22:54:25.415Z,5.15
2022-08-29T22:57:15.690Z,4.60
2022-08-29T22:59:57.816Z,4.13
2022-08-29T23:02:47.776Z,3.67
2022-08-29T23:05:29.796Z,3.67
2022-08-29T23:08:18.812Z,3.75
2022-08-29T23:10:59.971Z,3.72
2022-08-29T23:13:54.749Z,3.92
2022-08-29T23:16:43.875Z,3.83
2022-08-29T23:19:35.694Z,4.20
2022-08-29T23:22:25.704Z,4.13
2022-08-29T23:25:07.913Z,4.20
2022-08-29T23:27:55.778Z,4.35
2022-08-29T23:30:37.946Z,4.25
2022-08-29T23:33:26.727Z,3.92
2022-08-29T23:36:23.730Z,4.32
2022-08-29T23:39:19.712Z,4.47
2022-08-29T23:42:07.869Z,4.78
2022-08-29T23:45:03.714Z,4.72
2022-08-29T23:47:51.967Z,4.60
2022-08-29T23:50:39.836Z,5.15
2022-08-29T23:53:31.133Z,5.00
2022-08-29T23:56:15.736Z,4.90
2022-08-29T23:59:05.972Z,4.90
